createdAt,value
2022-09-28T00:01:17.180Z,92.75
2022-09-28T00:03:45.067Z,93.51
2022-09-28T00:06:12.638Z,93.51
2022-09-28T00:08:39.211Z,93.95
2022-09-28T00:11:08.362Z,94.38
2022-09-28T00:13:35.103Z,94.03
2022-09-28T00:16:14.747Z,93.95
2022-09-28T00:18:41.716Z,94.42
2022-09-28T00:21:09.977Z,94.28
2022-09-28T00:24:00.181Z,94.14
2022-09-28T00:26:28.510Z,93.31
2022-09-28T00:29:00.967Z,94.02
2022-09-28T00:31:30.488Z,93.78
2022-09-28T00:33:57.228Z,94.11
2022-09-28T00:36:24.415Z,93.93
2022-09-28T00:38:52.005Z,93.79
2022-09-28T00:41:18.352Z,93.30
2022-09-28T00:43:45.003Z,92.97
2022-09-28T00:46:19.781Z,92.94
2022-09-28T00:48:55.365Z,92.29
2022-09-28T00:51:23.124Z,91.97
2022-09-28T00:53:51.068Z,91.74
2022-09-28T00:56:20.220Z,91.87
2022-09-28T00:58:50.481Z,91.50
2022-09-28T01:01:17.501Z,91.52
2022-09-28T01:03:45.543Z,91.60
2022-09-28T01:06:31.348Z,90.62
2022-09-28T01:09:02.867Z,90.83
2022-09-28T01:11:32.692Z,91.42
2022-09-28T01:13:59.852Z,91.10
2022-09-28T01:17:00.611Z,90.66
2022-09-28T01:19:51.284Z,90.57
2022-09-28T01:22:55.128Z,90.82
2022-09-28T01:25:31.602Z,91.35
2022-09-28T01:28:04.629Z,90.57
2022-09-28T01:30:41.638Z,90.80
2022-09-28T01:33:17.455Z,90.91
2022-09-28T01:35:51.720Z,90.15
2022-09-28T01:38:23.186Z,91.05
2022-09-28T01:40:50.933Z,90.87
2022-09-28T01:43:23.663Z,90.58
2022-09-28T01:46:07.273Z,90.44
2022-09-28T01:48:43.478Z,90.26
2022-09-28T01:51:18.052Z,90.12
2022-09-28T01:53:53.171Z,90.45
2022-09-28T01:56:29.109Z,89.57
2022-09-28T01:59:03.140Z,89.56
2022-09-28T02:01:42.991Z,90.46
2022-09-28T02:04:18.236Z,90.53
2022-09-28T02:06:59.112Z,89.52
2022-09-28T02:09:36.164Z,90.27
2022-09-28T02:12:26.258Z,89.60
2022-09-28T02:14:58.475Z,90.67
2022-09-28T02:17:24.991Z,90.30
2022-09-28T02:19:51.593Z,90.41
2022-09-28T02:22:55.655Z,90.20
2022-09-28T02:25:41.023Z,90.08
2022-09-28T02:28:10.903Z,90.06
2022-09-28T02:30:39.370Z,90.67
2022-09-28T02:33:36.417Z,90.45
2022-09-28T02:36:06.168Z,89.62
2022-09-28T02:38:33.116Z,89.35
2022-09-28T02:41:26.607Z,89.61
2022-09-28T02:44:08.649Z,89.37
2022-09-28T02:46:49.010Z,89.40
2022-09-28T02:49:29.466Z,89.94
2022-09-28T02:52:21.496Z,89.10
2022-09-28T02:55:07.266Z,89.39
2022-09-28T02:58:01.392Z,89.65
2022-09-28T03:00:32.248Z,89.34
2022-09-28T03:03:01.407Z,89.13
2022-09-28T03:05:50.095Z,88.93
2022-09-28T03:08:30.077Z,88.52
2022-09-28T03:11:02.897Z,89.20
2022-09-28T03:13:31.319Z,88.80
2022-09-28T03:16:16.087Z,88.44
2022-09-28T03:18:43.399Z,88.56
2022-09-28T03:21:12.316Z,88.65
2022-09-28T03:23:39.458Z,88.26
2022-09-28T03:26:08.309Z,88.44
2022-09-28T03:28:36.494Z,87.95
2022-09-28T03:31:02.985Z,88.53
2022-09-28T03:33:29.773Z,88.96
2022-09-28T03:35:56.103Z,88.56
2022-09-28T03:38:22.498Z,88.02
2022-09-28T03:40:58.964Z,88.21
2022-09-28T03:43:26.558Z,88.11
2022-09-28T03:45:59.707Z,88.15
2022-09-28T03:48:32.946Z,88.28
2022-09-28T03:51:07.330Z,87.89
2022-09-28T03:53:33.912Z,87.55
2022-09-28T03:56:04.521Z,87.38
2022-09-28T03:58:31.256Z,87.35
2022-09-28T04:01:06.488Z,86.77
2022-09-28T04:03:33.419Z,87.31
2022-09-28T04:06:00.285Z,87.08
2022-09-28T04:08:27.535Z,87.66
2022-09-28T04:10:58.415Z,87.25
2022-09-28T04:13:25.991Z,87.55
2022-09-28T04:15:55.175Z,87.13
2022-09-28T04:18:22.420Z,87.57
2022-09-28T04:20:59.715Z,86.59
2022-09-28T04:23:28.060Z,86.83
2022-09-28T04:25:54.580Z,87.32
2022-09-28T04:28:40.444Z,87.13
2022-09-28T04:31:16.475Z,86.52
2022-09-28T04:33:43.308Z,86.13
2022-09-28T04:36:10.915Z,86.43
2022-09-28T04:38:52.426Z,86.34
2022-09-28T04:41:22.765Z,86.22
2022-09-28T04:43:49.814Z,85.62
2022-09-28T04:46:16.924Z,86.02
2022-09-28T04:48:43.755Z,85.62
2022-09-28T04:51:10.308Z,85.32
2022-09-28T04:53:36.716Z,85.63
2022-09-28T04:56:05.905Z,85.94
2022-09-28T04:58:34.622Z,86.22
2022-09-28T05:01:04.393Z,84.91
2022-09-28T05:03:30.923Z,85.86
2022-09-28T05:05:57.762Z,85.50
2022-09-28T05:08:24.432Z,86.67
2022-09-28T05:10:59.915Z,86.19
2022-09-28T05:13:27.702Z,86.81
2022-09-28T05:15:59.717Z,87.08
2022-09-28T05:18:28.628Z,87.58
2022-09-28T05:20:54.929Z,88.23
2022-09-28T05:23:21.684Z,87.84
2022-09-28T05:25:48.074Z,88.10
2022-09-28T05:28:14.496Z,88.13
2022-09-28T05:30:41.393Z,88.11
2022-09-28T05:33:08.878Z,88.57
2022-09-28T05:35:36.086Z,88.91
2022-09-28T05:38:04.989Z,88.10
2022-09-28T05:40:32.086Z,88.27
2022-09-28T05:43:00.332Z,88.70
2022-09-28T05:45:27.414Z,89.77
2022-09-28T05:47:54.591Z,90.21
2022-09-28T05:50:21.107Z,90.74
2022-09-28T05:52:48.228Z,91.27
2022-09-28T05:55:14.548Z,91.99
2022-09-28T05:57:40.842Z,92.04
2022-09-28T06:00:09.494Z,91.92
2022-09-28T06:02:35.862Z,92.23
2022-09-28T06:05:02.208Z,91.82
2022-09-28T06:07:28.958Z,91.06
2022-09-28T06:09:56.059Z,90.57
2022-09-28T06:12:22.411Z,90.25
2022-09-28T06:14:49.113Z,88.85
2022-09-28T06:17:15.888Z,86.72
2022-09-28T06:19:42.194Z,88.41
2022-09-28T06:22:08.905Z,87.85
2022-09-28T06:24:35.711Z,88.79
2022-09-28T06:27:02.042Z,88.47
2022-09-28T06:29:29.158Z,88.83
2022-09-28T06:31:56.475Z,88.35
2022-09-28T06:34:24.651Z,88.73
2022-09-28T06:36:51.268Z,87.88
2022-09-28T06:39:18.162Z,87.78
2022-09-28T06:41:44.475Z,88.39
2022-09-28T06:44:10.886Z,88.40
2022-09-28T06:46:39.334Z,87.82
2022-09-28T06:49:09.145Z,87.37
2022-09-28T06:51:36.603Z,87.95
2022-09-28T06:54:04.175Z,87.44
2022-09-28T06:56:32.941Z,87.76
2022-09-28T06:58:59.533Z,87.79
2022-09-28T07:01:26.294Z,87.64
2022-09-28T07:03:55.623Z,87.11
2022-09-28T07:06:24.069Z,87.05
2022-09-28T07:09:00.949Z,87.34
2022-09-28T07:11:39.545Z,87.32
2022-09-28T07:14:07.514Z,88.01
2022-09-28T07:16:56.542Z,87.51
2022-09-28T07:19:20.716Z,87.04
2022-09-28T07:21:53.777Z,86.53
2022-09-28T07:24:23.742Z,86.90
2022-09-28T07:26:50.932Z,86.96
2022-09-28T07:29:17.235Z,86.31
2022-09-28T07:31:43.943Z,86.52
2022-09-28T07:34:11.039Z,86.63
2022-09-28T07:36:38.981Z,85.92
2022-09-28T07:39:05.728Z,86.49
2022-09-28T07:41:32.475Z,86.41
2022-09-28T07:44:05.671Z,85.52
2022-09-28T07:46:33.832Z,85.58
2022-09-28T07:49:00.327Z,85.38
2022-09-28T07:51:27.292Z,86.08
2022-09-28T07:53:56.464Z,85.20
2022-09-28T07:56:23.319Z,85.50
2022-09-28T07:58:49.828Z,83.57
2022-09-28T08:01:16.618Z,84.94
2022-09-28T08:03:47.789Z,84.83
2022-09-28T08:06:17.523Z,84.25
2022-09-28T08:08:44.591Z,83.80
2022-09-28T08:11:13.441Z,83.04
2022-09-28T08:13:40.636Z,82.75
2022-09-28T08:16:08.332Z,83.96
2022-09-28T08:18:35.523Z,83.41
2022-09-28T08:21:22.932Z,83.52
2022-09-28T08:23:49.368Z,83.65
2022-09-28T08:26:16.709Z,82.21
2022-09-28T08:28:44.992Z,81.04
2022-09-28T08:31:11.462Z,82.22
2022-09-28T08:33:39.459Z,83.14
2022-09-28T08:36:06.076Z,82.46
2022-09-28T08:38:32.931Z,81.98
2022-09-28T08:41:21.645Z,82.46
2022-09-28T08:43:50.911Z,82.04
2022-09-28T08:46:23.898Z,81.02
2022-09-28T08:49:25.315Z,83.57
2022-09-28T08:52:14.678Z,80.00
2022-09-28T08:54:56.450Z,79.25
2022-09-28T08:57:41.839Z,77.18
2022-09-28T09:00:18.188Z,78.05
2022-09-28T09:02:46.787Z,78.36
2022-09-28T09:05:17.003Z,76.64
2022-09-28T09:07:58.770Z,78.88
2022-09-28T09:10:45.945Z,79.01
2022-09-28T09:13:34.199Z,78.88
2022-09-28T09:16:09.903Z,79.29
2022-09-28T09:18:42.607Z,77.82
2022-09-28T09:21:25.495Z,78.29
2022-09-28T09:23:58.859Z,79.82
2022-09-28T09:26:39.132Z,76.92
2022-09-28T09:29:44.302Z,77.78
2022-09-28T09:32:16.613Z,75.87
2022-09-28T09:35:01.516Z,75.24
2022-09-28T09:37:58.467Z,75.07
2022-09-28T09:40:58.943Z,75.14
2022-09-28T09:43:45.972Z,74.85
2022-09-28T09:46:20.319Z,74.43
2022-09-28T09:48:52.682Z,74.53
2022-09-28T09:51:29.061Z,74.42
2022-09-28T09:54:01.981Z,74.58
2022-09-28T09:56:38.451Z,76.15
2022-09-28T09:59:18.629Z,77.75
2022-09-28T10:01:46.338Z,78.53
2022-09-28T10:04:34.848Z,75.55
2022-09-28T10:07:06.913Z,75.56
2022-09-28T10:09:45.643Z,75.39
2022-09-28T10:12:19.260Z,77.15
2022-09-28T10:14:47.004Z,78.51
2022-09-28T10:17:19.681Z,79.31
2022-09-28T10:19:46.166Z,77.98
2022-09-28T10:22:19.203Z,77.21
2022-09-28T10:24:56.754Z,78.48
2022-09-28T10:27:34.096Z,76.42
2022-09-28T10:30:09.333Z,76.77
2022-09-28T10:32:45.195Z,75.87
2022-09-28T10:35:40.723Z,75.60
2022-09-28T10:38:15.776Z,73.13
2022-09-28T10:40:46.675Z,74.02
2022-09-28T10:43:29.126Z,73.82
2022-09-28T10:46:05.202Z,74.96
2022-09-28T10:48:48.271Z,77.58
2022-09-28T10:51:15.315Z,77.40
2022-09-28T10:53:41.857Z,72.78
2022-09-28T10:56:20.788Z,72.61
2022-09-28T10:58:47.183Z,70.81
2022-09-28T11:01:19.080Z,70.47
2022-09-28T11:03:54.872Z,69.12
2022-09-28T11:06:27.288Z,66.45
2022-09-28T11:08:57.349Z,66.32
2022-09-28T11:11:24.669Z,65.82
2022-09-28T11:13:54.006Z,64.62
2022-09-28T11:16:24.935Z,66.04
2022-09-28T11:18:51.630Z,66.65
2022-09-28T11:21:32.500Z,65.86
2022-09-28T11:24:06.393Z,67.01
2022-09-28T11:26:44.983Z,64.46
2022-09-28T11:29:24.432Z,66.23
2022-09-28T11:31:52.276Z,64.62
2022-09-28T11:34:36.449Z,65.04
2022-09-28T11:37:36.999Z,66.24
2022-09-28T11:40:24.835Z,65.86
2022-09-28T11:45:59.604Z,66.28
2022-09-28T11:48:33.860Z,65.22
2022-09-28T11:51:08.830Z,65.90
2022-09-28T11:53:41.611Z,65.99
2022-09-28T11:56:34.502Z,64.94
2022-09-28T11:59:10.994Z,65.01
2022-09-28T12:01:52.876Z,65.58
2022-09-28T12:04:37.403Z,65.37
2022-09-28T12:07:12.332Z,66.83
2022-09-28T12:09:50.431Z,66.31
2022-09-28T12:13:01.001Z,65.78
2022-09-28T12:16:10.344Z,64.83
2022-09-28T12:18:43.993Z,68.03
2022-09-28T12:21:25.955Z,67.76
2022-09-28T12:24:30.467Z,65.77
2022-09-28T12:27:05.057Z,65.17
2022-09-28T12:29:48.010Z,65.69
2022-09-28T12:32:37.559Z,67.19
2022-09-28T12:35:13.317Z,70.32
2022-09-28T12:38:15.003Z,69.23
2022-09-28T12:40:53.292Z,68.64
2022-09-28T12:43:28.888Z,69.31
2022-09-28T12:46:12.090Z,70.29
2022-09-28T12:49:47.265Z,70.92
2022-09-28T12:51:51.551Z,71.27
2022-09-28T12:54:35.404Z,69.07
2022-09-28T12:57:26.863Z,68.89
2022-09-28T13:00:22.797Z,67.40
2022-09-28T13:02:58.742Z,67.22
2022-09-28T13:05:37.292Z,66.66
2022-09-28T13:08:10.644Z,66.63
2022-09-28T13:11:09.027Z,62.97
2022-09-28T13:13:57.362Z,64.72
2022-09-28T13:16:40.216Z,63.39
2022-09-28T13:19:32.068Z,63.65
2022-09-28T13:22:38.180Z,65.60
2022-09-28T13:25:15.473Z,67.85
2022-09-28T13:27:48.449Z,67.35
2022-09-28T13:30:18.320Z,66.48
2022-09-28T13:32:47.284Z,68.51
2022-09-28T13:35:20.511Z,66.78
2022-09-28T13:37:49.085Z,65.15
2022-09-28T13:40:16.169Z,63.61
2022-09-28T13:42:52.147Z,67.46
2022-09-28T13:45:22.254Z,66.65
2022-09-28T13:47:53.301Z,66.75
2022-09-28T13:50:38.478Z,67.39
2022-09-28T13:53:23.932Z,67.71
2022-09-28T13:56:25.376Z,66.18
2022-09-28T13:59:10.405Z,66.88
2022-09-28T14:01:41.756Z,70.11
2022-09-28T14:04:21.025Z,69.91
2022-09-28T14:06:57.400Z,70.38
2022-09-28T14:09:26.777Z,70.70
2022-09-28T14:12:01.946Z,70.72
2022-09-28T14:14:32.181Z,71.89
2022-09-28T14:17:23.442Z,72.04
2022-09-28T14:20:09.036Z,73.77
2022-09-28T14:22:55.080Z,78.30
2022-09-28T14:25:32.005Z,81.03
2022-09-28T14:28:27.361Z,80.58
2022-09-28T14:30:56.674Z,81.81
2022-09-28T14:33:32.838Z,81.49
2022-09-28T14:36:06.299Z,82.00
2022-09-28T14:38:56.367Z,81.77
2022-09-28T14:41:28.675Z,82.02
2022-09-28T14:44:08.419Z,81.88
2022-09-28T14:46:38.586Z,81.31
2022-09-28T14:49:17.606Z,83.35
2022-09-28T14:51:53.362Z,81.95
2022-09-28T14:54:22.002Z,82.23
2022-09-28T14:56:57.285Z,82.77
2022-09-28T14:59:38.183Z,83.63
2022-09-28T15:02:17.303Z,83.93
2022-09-28T15:04:54.279Z,83.28
2022-09-28T15:07:27.380Z,83.04
2022-09-28T15:09:56.435Z,82.91
2022-09-28T15:12:28.468Z,83.58
2022-09-28T15:15:02.546Z,83.28
2022-09-28T15:17:39.278Z,84.07
2022-09-28T15:20:20.905Z,83.98
2022-09-28T15:22:49.614Z,83.93
2022-09-28T15:25:19.869Z,84.00
2022-09-28T15:27:52.875Z,84.57
2022-09-28T15:30:31.708Z,83.69
2022-09-28T15:33:18.728Z,84.02
2022-09-28T15:36:02.055Z,84.03
2022-09-28T15:38:29.948Z,84.95
2022-09-28T15:40:57.343Z,84.81
2022-09-28T15:43:26.879Z,84.28
2022-09-28T15:46:07.335Z,84.88
2022-09-28T15:48:55.183Z,85.31
2022-09-28T15:51:24.526Z,85.41
2022-09-28T15:53:59.763Z,85.28
2022-09-28T15:56:27.503Z,86.14
2022-09-28T15:59:29.939Z,85.92
2022-09-28T16:02:15.530Z,85.68
2022-09-28T16:04:54.689Z,86.40
2022-09-28T16:07:25.496Z,85.29
2022-09-28T16:10:13.323Z,85.96
2022-09-28T16:12:40.092Z,85.82
2022-09-28T16:15:15.290Z,86.18
2022-09-28T16:17:41.953Z,85.49
2022-09-28T16:20:21.114Z,85.59
2022-09-28T16:22:47.795Z,84.92
2022-09-28T16:25:22.637Z,85.54
2022-09-28T16:27:48.882Z,85.16
2022-09-28T16:30:25.411Z,84.67
2022-09-28T16:32:57.652Z,85.31
2022-09-28T16:35:32.468Z,85.13
2022-09-28T16:38:01.581Z,85.03
2022-09-28T16:40:28.660Z,85.02
2022-09-28T16:43:00.067Z,85.39
2022-09-28T16:45:26.612Z,84.73
2022-09-28T16:47:55.971Z,84.70
2022-09-28T16:50:24.185Z,84.86
2022-09-28T16:53:32.151Z,84.12
2022-09-28T16:55:59.625Z,85.27
2022-09-28T16:58:26.684Z,84.85
2022-09-28T17:00:54.544Z,85.38
2022-09-28T17:03:23.292Z,85.42
2022-09-28T17:05:50.905Z,85.68
2022-09-28T17:08:20.662Z,85.53
2022-09-28T17:13:39.572Z,85.88
2022-09-28T17:16:12.177Z,85.47
2022-09-28T17:18:40.367Z,86.05
2022-09-28T17:21:12.095Z,86.19
2022-09-28T17:23:38.538Z,86.53
2022-09-28T17:26:06.208Z,86.38
2022-09-28T17:28:35.134Z,87.00
2022-09-28T17:31:02.900Z,86.39
2022-09-28T17:33:30.058Z,85.76
2022-09-28T17:36:02.189Z,85.11
2022-09-28T17:38:28.670Z,85.93
2022-09-28T17:40:55.780Z,86.29
2022-09-28T17:43:22.360Z,85.51
2022-09-28T17:45:50.580Z,85.78
2022-09-28T17:48:23.667Z,86.21
2022-09-28T17:50:50.612Z,86.61
2022-09-28T17:53:17.197Z,86.53
2022-09-28T17:55:44.044Z,86.72
2022-09-28T17:58:22.775Z,86.82
2022-09-28T18:00:51.353Z,86.10
2022-09-28T18:03:20.592Z,86.22
2022-09-28T18:05:49.689Z,87.14
2022-09-28T18:08:18.670Z,86.68
2022-09-28T18:10:46.732Z,87.33
2022-09-28T18:13:14.130Z,87.41
2022-09-28T18:15:40.751Z,87.51
2022-09-28T18:18:10.471Z,86.42
2022-09-28T18:20:39.329Z,86.12
2022-09-28T18:23:05.632Z,86.40
2022-09-28T18:25:31.971Z,87.31
2022-09-28T18:28:00.257Z,89.24
2022-09-28T18:30:27.990Z,88.34
2022-09-28T18:32:54.584Z,87.82
2022-09-28T18:35:23.145Z,88.41
2022-09-28T18:37:50.244Z,88.65
2022-09-28T18:40:17.041Z,88.23
2022-09-28T18:42:44.045Z,88.39
2022-09-28T18:45:11.168Z,88.21
2022-09-28T18:47:38.802Z,89.06
2022-09-28T18:50:06.271Z,89.30
2022-09-28T18:52:36.426Z,89.14
2022-09-28T18:55:03.003Z,89.70
2022-09-28T18:57:29.760Z,88.78
2022-09-28T18:59:56.062Z,88.47
2022-09-28T19:02:22.908Z,87.54
2022-09-28T19:04:49.388Z,87.19
2022-09-28T19:07:16.794Z,87.66
2022-09-28T19:09:44.527Z,87.42
2022-09-28T19:12:11.698Z,87.42
2022-09-28T19:14:38.119Z,87.40
2022-09-28T19:17:04.959Z,87.17
2022-09-28T19:19:31.875Z,87.59
2022-09-28T19:21:59.256Z,87.55
2022-09-28T19:24:25.643Z,88.20
2022-09-28T19:26:55.050Z,86.85
2022-09-28T19:29:22.007Z,86.91
2022-09-28T19:31:49.540Z,87.57
2022-09-28T19:34:16.045Z,87.79
2022-09-28T19:36:43.207Z,87.83
2022-09-28T19:39:13.830Z,88.03
2022-09-28T19:42:00.794Z,88.39
2022-09-28T19:44:28.626Z,87.82
2022-09-28T19:47:06.804Z,88.45
2022-09-28T19:49:37.351Z,87.40
2022-09-28T19:52:13.186Z,88.20
2022-09-28T19:54:44.960Z,88.30
2022-09-28T19:57:14.653Z,88.67
2022-09-28T19:59:41.511Z,88.42
2022-09-28T20:02:10.114Z,88.53
2022-09-28T20:04:36.527Z,88.70
2022-09-28T20:07:04.682Z,88.10
2022-09-28T20:09:31.903Z,88.83
2022-09-28T20:11:58.311Z,88.44
2022-09-28T20:14:26.411Z,87.94
2022-09-28T20:16:57.094Z,89.04
2022-09-28T20:19:23.506Z,88.48
2022-09-28T20:21:50.958Z,87.78
2022-09-28T20:24:17.346Z,87.55
2022-09-28T20:26:44.516Z,87.27
2022-09-28T20:29:11.583Z,88.36
2022-09-28T20:31:37.989Z,89.01
2022-09-28T20:34:05.772Z,88.96
2022-09-28T20:36:33.302Z,88.78
2022-09-28T20:39:04.010Z,88.85
2022-09-28T20:41:37.072Z,88.47
2022-09-28T20:44:06.119Z,87.42
2022-09-28T20:46:34.582Z,87.33
2022-09-28T20:49:01.758Z,87.65
2022-09-28T20:51:28.307Z,87.12
2022-09-28T20:53:56.288Z,87.03
2022-09-28T20:56:29.103Z,86.81
2022-09-28T20:58:55.672Z,86.83
2022-09-28T21:01:24.843Z,87.08
2022-09-28T21:03:56.804Z,87.27
2022-09-28T21:06:25.844Z,87.52
2022-09-28T21:08:52.592Z,86.39
2022-09-28T21:11:22.627Z,87.06
2022-09-28T21:13:52.681Z,87.10
2022-09-28T21:16:19.321Z,86.81
2022-09-28T21:18:45.678Z,87.37
2022-09-28T21:21:14.733Z,87.29
2022-09-28T21:23:42.991Z,89.04
2022-09-28T21:26:24.510Z,89.89
2022-09-28T21:29:04.727Z,90.40
2022-09-28T21:31:39.628Z,90.23
2022-09-28T21:34:06.819Z,90.72
2022-09-28T21:36:43.236Z,89.88
2022-09-28T21:39:10.611Z,89.99
2022-09-28T21:41:37.413Z,90.20
2022-09-28T21:44:03.771Z,90.32
2022-09-28T21:46:34.281Z,89.46
2022-09-28T21:49:02.470Z,89.62
2022-09-28T21:51:30.035Z,89.02
2022-09-28T21:53:56.655Z,89.63
2022-09-28T21:56:23.065Z,90.15
2022-09-28T21:58:50.677Z,89.33
2022-09-28T22:01:19.682Z,88.79
2022-09-28T22:03:55.518Z,88.66
2022-09-28T22:06:24.342Z,89.81
2022-09-28T22:08:50.995Z,89.82
2022-09-28T22:11:20.421Z,89.17
2022-09-28T22:13:49.316Z,89.00
2022-09-28T22:16:18.081Z,89.67
2022-09-28T22:18:45.692Z,89.69
2022-09-28T22:21:16.379Z,90.11
2022-09-28T22:23:43.704Z,90.47
2022-09-28T22:26:11.617Z,90.47
2022-09-28T22:28:39.211Z,90.51
2022-09-28T22:31:06.146Z,90.19
2022-09-28T22:33:32.608Z,89.10
2022-09-28T22:35:59.453Z,89.77
2022-09-28T22:38:25.815Z,89.05
2022-09-28T22:40:54.897Z,90.41
2022-09-28T22:43:25.804Z,91.14
2022-09-28T22:46:12.950Z,90.98
2022-09-28T22:48:40.439Z,90.01
2022-09-28T22:51:07.754Z,89.86
2022-09-28T22:53:35.023Z,90.29
2022-09-28T22:56:05.487Z,91.82
2022-09-28T22:58:33.504Z,91.20
2022-09-28T23:01:15.167Z,91.41
2022-09-28T23:03:43.102Z,91.21
2022-09-28T23:06:10.787Z,91.31
2022-09-28T23:08:37.746Z,91.34
2022-09-28T23:11:05.560Z,91.33
2022-09-28T23:13:32.007Z,91.03
2022-09-28T23:16:03.467Z,90.33
2022-09-28T23:18:32.520Z,90.65
2022-09-28T23:21:01.592Z,90.81
2022-09-28T23:23:28.631Z,91.29
2022-09-28T23:25:56.235Z,90.08
2022-09-28T23:28:24.395Z,90.35
2022-09-28T23:30:51.540Z,90.19
2022-09-28T23:33:20.624Z,90.24
2022-09-28T23:35:47.153Z,90.12
2022-09-28T23:38:16.571Z,90.52
2022-09-28T23:40:43.616Z,89.70
2022-09-28T23:43:09.978Z,89.34
2022-09-28T23:45:36.324Z,90.14
2022-09-28T23:48:03.391Z,89.72
2022-09-28T23:50:29.710Z,90.40
2022-09-28T23:52:56.108Z,89.85
2022-09-28T23:55:23.037Z,90.38
2022-09-28T23:57:49.447Z,89.92
